createdAt,value
2018-10-19T00:01:22.324Z,66.26
2018-10-19T00:03:50.148Z,66.64
2018-10-19T00:06:17.632Z,66.35
2018-10-19T00:08:45.139Z,66.73
2018-10-19T00:11:13.091Z,66.68
2018-10-19T00:13:40.617Z,66.58
2018-10-19T00:16:08.035Z,66.61
2018-10-19T00:18:35.649Z,66.50
2018-10-19T00:21:03.190Z,66.81
2018-10-19T00:23:30.638Z,67.16
2018-10-19T00:25:58.424Z,66.99
2018-10-19T00:28:25.942Z,67.05
2018-10-19T00:30:53.418Z,67.04
2018-10-19T00:33:21.226Z,67.01
2018-10-19T00:35:48.686Z,67.13
2018-10-19T00:38:16.181Z,66.89
2018-10-19T00:40:43.985Z,67.16
2018-10-19T00:43:11.454Z,67.03
2018-10-19T00:45:45.560Z,66.99
2018-10-19T00:48:15.247Z,67.18
2018-10-19T00:50:43.031Z,67.11
2018-10-19T00:53:11.134Z,67.10
2018-10-19T00:55:39.034Z,67.30
2018-10-19T00:58:06.712Z,67.38
2018-10-19T01:00:41.873Z,67.34
2018-10-19T01:03:09.691Z,67.23
2018-10-19T01:05:37.976Z,67.28
2018-10-19T01:08:05.945Z,67.35
2018-10-19T01:10:33.480Z,67.50
2018-10-19T01:13:01.061Z,67.21
2018-10-19T01:15:29.655Z,67.38
2018-10-19T01:17:57.551Z,67.32
2018-10-19T01:20:25.042Z,67.56
2018-10-19T01:22:53.080Z,67.93
2018-10-19T01:25:20.486Z,67.81
2018-10-19T01:27:47.958Z,67.86
2018-10-19T01:30:15.685Z,67.93
2018-10-19T01:32:43.137Z,67.94
2018-10-19T01:35:11.910Z,67.96
2018-10-19T01:37:39.982Z,67.96
2018-10-19T01:40:09.067Z,67.96
2018-10-19T01:42:36.831Z,68.04
2018-10-19T01:45:05.674Z,68.06
2018-10-19T01:47:33.212Z,68.06
2018-10-19T01:50:00.672Z,67.89
2018-10-19T01:52:28.478Z,67.82
2018-10-19T01:54:55.950Z,68.06
2018-10-19T01:57:23.423Z,68.22
2018-10-19T01:59:51.484Z,68.16
2018-10-19T02:02:18.931Z,68.07
2018-10-19T02:04:46.802Z,67.98
2018-10-19T02:07:14.750Z,68.16
2018-10-19T02:09:42.213Z,68.29
2018-10-19T02:12:09.775Z,67.97
2018-10-19T02:14:37.613Z,68.31
2018-10-19T02:17:05.548Z,68.23
2018-10-19T02:19:32.996Z,68.10
2018-10-19T02:22:00.832Z,68.31
2018-10-19T02:24:28.310Z,68.38
2018-10-19T02:26:55.855Z,68.30
2018-10-19T02:29:23.464Z,68.39
2018-10-19T02:31:50.971Z,68.31
2018-10-19T02:34:18.441Z,68.52
2018-10-19T02:36:46.403Z,68.51
2018-10-19T02:39:13.905Z,68.65
2018-10-19T02:41:41.529Z,68.50
2018-10-19T02:44:09.414Z,68.68
2018-10-19T02:46:36.828Z,68.63
2018-10-19T02:49:04.721Z,68.50
2018-10-19T02:51:32.502Z,68.30
2018-10-19T02:53:59.967Z,68.12
2018-10-19T02:56:27.441Z,68.00
2018-10-19T02:58:55.433Z,68.32
2018-10-19T03:01:22.909Z,68.56
2018-10-19T03:03:50.416Z,68.69
2018-10-19T03:06:18.252Z,68.78
2018-10-19T03:08:45.750Z,68.58
2018-10-19T03:11:13.209Z,68.58
2018-10-19T03:13:41.062Z,68.61
2018-10-19T03:16:08.615Z,68.71
2018-10-19T03:18:36.078Z,68.97
2018-10-19T03:21:04.156Z,68.63
2018-10-19T03:23:31.639Z,68.95
2018-10-19T03:25:59.094Z,68.95
2018-10-19T03:28:26.870Z,69.13
2018-10-19T03:30:54.305Z,68.72
2018-10-19T03:33:21.795Z,68.82
2018-10-19T03:35:49.619Z,68.71
2018-10-19T03:38:17.132Z,68.69
2018-10-19T03:40:44.659Z,68.83
2018-10-19T03:43:12.426Z,68.75
2018-10-19T03:45:39.850Z,68.82
2018-10-19T03:48:07.379Z,68.42
2018-10-19T03:50:35.118Z,68.30
2018-10-19T03:53:02.568Z,68.27
2018-10-19T03:55:29.998Z,68.37
2018-10-19T03:57:57.973Z,67.78
2018-10-19T04:00:25.413Z,68.08
2018-10-19T04:02:52.894Z,67.87
2018-10-19T04:05:21.391Z,67.58
2018-10-19T04:07:48.881Z,67.42
2018-10-19T04:10:16.377Z,67.55
2018-10-19T04:12:44.284Z,67.14
2018-10-19T04:15:11.754Z,67.26
2018-10-19T04:17:39.207Z,67.41
2018-10-19T04:20:07.056Z,67.16
2018-10-19T04:22:34.577Z,67.31
2018-10-19T04:25:02.231Z,67.03
2018-10-19T04:27:30.217Z,66.73
2018-10-19T04:29:57.697Z,66.80
2018-10-19T04:32:25.159Z,66.82
2018-10-19T04:34:52.829Z,66.77
2018-10-19T04:37:20.305Z,66.70
2018-10-19T04:39:47.792Z,66.92
2018-10-19T04:42:15.722Z,66.68
2018-10-19T04:44:43.139Z,66.52
2018-10-19T04:47:10.662Z,66.83
2018-10-19T04:49:38.648Z,66.31
2018-10-19T04:52:06.155Z,66.25
2018-10-19T04:54:33.603Z,66.13
2018-10-19T04:57:01.665Z,66.26
2018-10-19T04:59:29.123Z,66.30
2018-10-19T05:01:56.530Z,66.07
2018-10-19T05:04:24.301Z,66.14
2018-10-19T05:06:51.764Z,66.01
2018-10-19T05:09:19.213Z,65.96
2018-10-19T05:11:47.066Z,66.24
2018-10-19T05:14:14.667Z,65.91
2018-10-19T05:16:42.079Z,66.17
2018-10-19T05:19:09.956Z,65.83
2018-10-19T05:21:37.781Z,66.07
2018-10-19T05:24:05.465Z,65.83
2018-10-19T05:26:33.242Z,65.62
2018-10-19T05:29:00.811Z,65.72
2018-10-19T05:31:28.323Z,65.79
2018-10-19T05:33:56.882Z,65.95
2018-10-19T05:36:24.611Z,65.52
2018-10-19T05:38:52.090Z,65.42
2018-10-19T05:41:20.288Z,65.25
2018-10-19T05:43:47.687Z,65.55
2018-10-19T05:46:15.197Z,65.64
2018-10-19T05:48:43.012Z,65.15
2018-10-19T05:51:10.933Z,65.71
2018-10-19T05:53:38.397Z,64.88
2018-10-19T05:56:06.429Z,64.99
2018-10-19T05:58:33.803Z,65.48
2018-10-19T06:01:01.277Z,65.27
2018-10-19T06:03:29.306Z,65.24
2018-10-19T06:05:56.779Z,65.13
2018-10-19T06:08:24.262Z,65.15
2018-10-19T06:10:52.000Z,65.28
2018-10-19T06:13:19.633Z,65.09
2018-10-19T06:15:47.115Z,65.28
2018-10-19T06:18:15.012Z,65.22
2018-10-19T06:20:42.506Z,64.94
2018-10-19T06:23:10.137Z,64.88
2018-10-19T06:25:38.204Z,64.81
2018-10-19T06:28:05.874Z,64.97
2018-10-19T06:30:33.359Z,64.88
2018-10-19T06:33:01.194Z,64.73
2018-10-19T06:35:28.694Z,65.20
2018-10-19T06:37:56.272Z,64.86
2018-10-19T06:40:24.286Z,64.64
2018-10-19T06:42:51.737Z,65.22
2018-10-19T06:45:19.267Z,64.87
2018-10-19T06:47:47.099Z,64.91
2018-10-19T06:50:14.684Z,65.11
2018-10-19T06:52:42.075Z,64.87
2018-10-19T06:55:13.170Z,65.01
2018-10-19T06:57:40.607Z,64.93
2018-10-19T07:00:08.121Z,64.87
2018-10-19T07:02:35.929Z,64.65
2018-10-19T07:05:03.541Z,65.05
2018-10-19T07:07:31.026Z,64.76
2018-10-19T07:09:58.740Z,64.87
2018-10-19T07:12:26.247Z,65.02
2018-10-19T07:14:53.680Z,64.71
2018-10-19T07:17:21.762Z,64.72
2018-10-19T07:19:49.233Z,64.90
2018-10-19T07:22:16.776Z,64.52
2018-10-19T07:24:45.462Z,64.50
2018-10-19T07:27:12.985Z,64.28
2018-10-19T07:29:40.439Z,64.78
2018-10-19T07:32:08.170Z,64.35
2018-10-19T07:34:35.653Z,64.45
2018-10-19T07:37:03.135Z,64.28
2018-10-19T07:39:30.939Z,64.36
2018-10-19T07:41:58.429Z,64.36
2018-10-19T07:44:25.890Z,64.28
2018-10-19T07:46:53.870Z,64.39
2018-10-19T07:49:21.296Z,64.40
2018-10-19T07:51:48.730Z,64.25
2018-10-19T07:54:16.462Z,64.10
2018-10-19T07:56:43.952Z,63.64
2018-10-19T07:59:11.411Z,64.15
2018-10-19T08:01:39.380Z,63.90
2018-10-19T08:04:06.848Z,63.99
2018-10-19T08:06:34.384Z,63.22
2018-10-19T08:09:02.150Z,63.75
2018-10-19T08:11:29.632Z,63.99
2018-10-19T08:13:57.098Z,63.72
2018-10-19T08:16:25.152Z,63.66
2018-10-19T08:18:52.598Z,63.47
2018-10-19T08:21:20.077Z,63.53
2018-10-19T08:23:47.976Z,63.55
2018-10-19T08:26:15.448Z,63.03
2018-10-19T08:28:42.997Z,63.43
2018-10-19T08:31:11.162Z,62.80
2018-10-19T08:33:38.647Z,62.95
2018-10-19T08:36:06.132Z,62.76
2018-10-19T08:38:34.049Z,62.64
2018-10-19T08:41:01.603Z,62.70
2018-10-19T08:43:29.049Z,62.42
2018-10-19T08:46:01.435Z,62.17
2018-10-19T08:48:28.926Z,62.34
2018-10-19T08:50:56.438Z,62.15
2018-10-19T08:53:24.094Z,62.26
2018-10-19T08:55:52.191Z,62.01
2018-10-19T08:58:19.726Z,61.92
2018-10-19T09:00:47.338Z,61.99
2018-10-19T09:03:14.896Z,62.02
2018-10-19T09:05:42.362Z,61.92
2018-10-19T09:08:10.115Z,61.68
2018-10-19T09:10:37.641Z,61.44
2018-10-19T09:13:05.752Z,61.43
2018-10-19T09:15:33.290Z,61.12
2018-10-19T09:18:00.999Z,61.32
2018-10-19T09:20:28.489Z,60.83
2018-10-19T09:22:56.123Z,61.19
2018-10-19T09:25:24.171Z,60.90
2018-10-19T09:27:51.632Z,60.90
2018-10-19T09:30:19.673Z,60.51
2018-10-19T09:32:47.437Z,60.71
2018-10-19T09:35:14.971Z,60.53
2018-10-19T09:37:42.702Z,59.90
2018-10-19T09:40:10.447Z,59.71
2018-10-19T09:42:37.920Z,59.48
2018-10-19T09:45:06.422Z,59.64
2018-10-19T09:47:34.184Z,59.36
2018-10-19T09:50:01.593Z,59.35
2018-10-19T09:52:29.314Z,58.73
2018-10-19T09:54:56.893Z,58.80
2018-10-19T09:57:24.346Z,58.84
2018-10-19T09:59:52.058Z,58.77
2018-10-19T10:02:19.804Z,58.30
2018-10-19T10:04:47.296Z,58.33
2018-10-19T10:07:14.885Z,58.53
2018-10-19T10:09:42.627Z,58.23
2018-10-19T10:12:10.141Z,58.46
2018-10-19T10:14:37.865Z,57.86
2018-10-19T10:17:05.664Z,57.59
2018-10-19T10:19:33.113Z,57.87
2018-10-19T10:22:00.747Z,57.60
2018-10-19T10:24:28.506Z,57.76
2018-10-19T10:26:56.134Z,57.46
2018-10-19T10:29:23.754Z,57.86
2018-10-19T10:31:51.517Z,57.09
2018-10-19T10:34:19.019Z,57.39
2018-10-19T10:36:46.641Z,57.00
2018-10-19T10:39:14.468Z,56.97
2018-10-19T10:41:41.857Z,56.50
2018-10-19T10:44:09.658Z,56.68
2018-10-19T10:46:37.584Z,56.28
2018-10-19T10:49:05.475Z,56.12
2018-10-19T10:51:33.083Z,56.12
2018-10-19T10:54:00.708Z,56.13
2018-10-19T10:56:28.118Z,55.47
2018-10-19T10:58:56.138Z,55.94
2018-10-19T11:01:23.799Z,55.50
2018-10-19T11:03:51.300Z,55.16
2018-10-19T11:06:18.948Z,54.89
2018-10-19T11:08:46.484Z,54.61
2018-10-19T11:11:14.703Z,54.49
2018-10-19T11:13:43.075Z,54.50
2018-10-19T11:16:11.576Z,54.13
2018-10-19T11:18:39.349Z,54.07
2018-10-19T11:21:07.158Z,53.93
2018-10-19T11:23:34.824Z,53.84
2018-10-19T11:26:02.564Z,54.05
2018-10-19T11:28:30.544Z,54.37
2018-10-19T11:30:58.377Z,53.50
2018-10-19T11:33:25.818Z,53.58
2018-10-19T11:35:53.552Z,53.17
2018-10-19T11:38:21.350Z,53.37
2018-10-19T11:40:48.829Z,53.23
2018-10-19T11:43:16.462Z,53.30
2018-10-19T11:45:44.247Z,53.30
2018-10-19T11:48:11.800Z,53.53
2018-10-19T11:50:39.633Z,53.29
2018-10-19T11:53:07.474Z,53.62
2018-10-19T11:55:34.900Z,53.10
2018-10-19T11:58:02.719Z,53.31
2018-10-19T12:00:30.275Z,53.18
2018-10-19T12:02:57.724Z,53.02
2018-10-19T12:05:25.426Z,53.08
2018-10-19T12:07:53.736Z,52.97
2018-10-19T12:10:21.208Z,53.10
2018-10-19T12:12:49.105Z,53.05
2018-10-19T12:15:17.227Z,53.07
2018-10-19T12:17:45.172Z,53.46
2018-10-19T12:20:16.253Z,52.85
2018-10-19T12:22:44.007Z,53.03
2018-10-19T12:25:12.388Z,53.07
2018-10-19T12:27:40.347Z,52.54
2018-10-19T12:30:08.586Z,52.65
2018-10-19T12:32:36.270Z,52.64
2018-10-19T12:35:04.852Z,52.70
2018-10-19T12:37:32.612Z,52.51
2018-10-19T12:40:00.161Z,52.50
2018-10-19T12:42:27.751Z,52.30
2018-10-19T12:44:55.614Z,52.77
2018-10-19T12:47:35.093Z,52.39
2018-10-19T12:50:02.691Z,52.21
2018-10-19T12:52:30.215Z,52.33
2018-10-19T12:54:58.377Z,52.52
2018-10-19T12:57:25.843Z,52.30
2018-10-19T12:59:53.497Z,52.66
2018-10-19T13:02:21.632Z,51.98
2018-10-19T13:04:49.140Z,51.97
2018-10-19T13:07:16.633Z,52.08
2018-10-19T13:09:44.613Z,51.89
2018-10-19T13:12:12.299Z,52.30
2018-10-19T13:14:39.838Z,51.65
2018-10-19T13:17:07.684Z,51.67
2018-10-19T13:19:35.138Z,51.82
2018-10-19T13:22:02.611Z,51.38
2018-10-19T13:24:30.325Z,51.60
2018-10-19T13:26:57.793Z,51.88
2018-10-19T13:29:25.304Z,51.65
2018-10-19T13:31:53.166Z,51.41
2018-10-19T13:34:20.666Z,51.40
2018-10-19T13:36:48.214Z,51.42
2018-10-19T13:39:15.883Z,51.96
2018-10-19T13:41:43.380Z,51.37
2018-10-19T13:44:11.058Z,51.66
2018-10-19T13:46:38.981Z,51.73
2018-10-19T13:49:06.524Z,51.78
2018-10-19T13:51:34.393Z,51.13
2018-10-19T13:54:02.135Z,51.18
2018-10-19T13:56:29.827Z,51.43
2018-10-19T13:58:57.395Z,51.50
2018-10-19T14:01:25.400Z,51.44
2018-10-19T14:03:52.899Z,51.40
2018-10-19T14:06:20.400Z,51.17
2018-10-19T14:08:48.205Z,51.34
2018-10-19T14:11:15.671Z,51.78
2018-10-19T14:13:43.143Z,51.61
2018-10-19T14:16:10.983Z,51.99
2018-10-19T14:18:38.486Z,51.57
2018-10-19T14:21:06.025Z,51.86
2018-10-19T14:23:33.746Z,52.27
2018-10-19T14:26:01.193Z,52.39
2018-10-19T14:28:28.736Z,52.38
2018-10-19T14:30:56.572Z,51.98
2018-10-19T14:33:24.181Z,52.38
2018-10-19T14:35:52.469Z,52.11
2018-10-19T14:38:20.631Z,51.99
2018-10-19T14:40:48.168Z,52.29
2018-10-19T14:43:15.622Z,52.69
2018-10-19T14:45:43.776Z,52.59
2018-10-19T14:48:11.238Z,52.58
2018-10-19T14:50:38.700Z,52.49
2018-10-19T14:53:06.807Z,52.97
2018-10-19T14:55:34.269Z,52.57
2018-10-19T14:58:01.878Z,52.51
2018-10-19T15:00:29.752Z,53.08
2018-10-19T15:02:57.224Z,52.82
2018-10-19T15:05:24.710Z,53.20
2018-10-19T15:07:52.382Z,53.24
2018-10-19T15:10:21.289Z,53.64
2018-10-19T15:12:48.593Z,53.52
2018-10-19T15:15:17.636Z,53.96
2018-10-19T15:17:45.249Z,53.58
2018-10-19T15:20:13.223Z,53.69
2018-10-19T15:22:40.859Z,53.84
2018-10-19T15:25:09.033Z,53.70
2018-10-19T15:27:36.937Z,54.04
2018-10-19T15:30:05.524Z,54.58
2018-10-19T15:32:32.987Z,54.37
2018-10-19T15:35:00.420Z,54.75
2018-10-19T15:37:28.057Z,54.71
2018-10-19T15:39:55.555Z,54.69
2018-10-19T15:42:23.046Z,54.88
2018-10-19T15:44:50.642Z,54.92
2018-10-19T15:47:18.066Z,54.78
2018-10-19T15:49:45.483Z,54.81
2018-10-19T15:52:13.440Z,54.85
2018-10-19T15:54:41.018Z,55.30
2018-10-19T15:57:08.511Z,55.06
2018-10-19T15:59:36.420Z,55.02
2018-10-19T16:02:04.123Z,55.74
2018-10-19T16:04:31.572Z,55.91
2018-10-19T16:06:59.451Z,55.49
2018-10-19T16:09:26.895Z,55.98
2018-10-19T16:11:54.416Z,55.82
2018-10-19T16:14:22.183Z,55.81
2018-10-19T16:16:49.645Z,56.17
2018-10-19T16:19:17.662Z,55.86
2018-10-19T16:21:45.462Z,55.92
2018-10-19T16:24:12.944Z,56.16
2018-10-19T16:26:40.385Z,56.04
2018-10-19T16:29:08.626Z,56.39
2018-10-19T16:31:36.103Z,56.48
2018-10-19T16:34:03.806Z,56.28
2018-10-19T16:36:31.555Z,56.60
2018-10-19T16:38:58.977Z,56.27
2018-10-19T16:41:26.427Z,56.95
2018-10-19T16:43:54.270Z,57.14
2018-10-19T16:46:21.791Z,56.89
2018-10-19T16:48:49.242Z,57.16
2018-10-19T16:51:17.085Z,57.14
2018-10-19T16:53:44.556Z,57.11
2018-10-19T16:56:12.033Z,57.50
2018-10-19T16:58:39.886Z,57.41
2018-10-19T17:01:07.447Z,57.71
2018-10-19T17:03:34.853Z,57.42
2018-10-19T17:06:02.527Z,57.67
2018-10-19T17:08:29.984Z,57.57
2018-10-19T17:10:57.436Z,57.90
2018-10-19T17:13:25.272Z,57.98
2018-10-19T17:15:52.758Z,57.44
2018-10-19T17:18:20.218Z,57.93
2018-10-19T17:20:47.957Z,58.01
2018-10-19T17:23:15.453Z,57.72
2018-10-19T17:25:42.949Z,58.05
2018-10-19T17:28:10.805Z,58.29
2018-10-19T17:30:38.407Z,58.38
2018-10-19T17:33:06.052Z,58.46
2018-10-19T17:35:33.822Z,58.50
2018-10-19T17:38:01.329Z,58.42
2018-10-19T17:40:28.824Z,58.79
2018-10-19T17:42:56.859Z,58.90
2018-10-19T17:45:24.351Z,59.33
2018-10-19T17:47:51.937Z,58.70
2018-10-19T17:50:19.595Z,59.58
2018-10-19T17:52:47.075Z,59.08
2018-10-19T17:55:14.514Z,59.40
2018-10-19T17:57:42.520Z,59.75
2018-10-19T18:00:11.379Z,59.80
2018-10-19T18:02:38.986Z,60.06
2018-10-19T18:05:06.996Z,59.94
2018-10-19T18:07:34.543Z,59.91
2018-10-19T18:10:02.002Z,59.96
2018-10-19T18:12:29.882Z,59.81
2018-10-19T18:14:57.373Z,60.29
2018-10-19T18:17:24.843Z,59.81
2018-10-19T18:19:52.540Z,59.85
2018-10-19T18:22:20.280Z,60.24
2018-10-19T18:24:47.494Z,60.12
2018-10-19T18:27:15.422Z,60.28
2018-10-19T18:29:42.928Z,60.35
2018-10-19T18:32:10.559Z,60.62
2018-10-19T18:34:38.494Z,60.93
2018-10-19T18:37:06.134Z,61.14
2018-10-19T18:39:33.631Z,61.18
2018-10-19T18:42:01.447Z,60.93
2018-10-19T18:44:28.997Z,61.12
2018-10-19T18:46:56.529Z,60.83
2018-10-19T18:49:24.118Z,60.93
2018-10-19T18:51:51.755Z,61.08
2018-10-19T18:54:19.315Z,61.05
2018-10-19T18:56:47.048Z,61.06
2018-10-19T18:59:14.784Z,61.20
2018-10-19T19:01:42.321Z,61.24
2018-10-19T19:04:10.122Z,61.60
2018-10-19T19:06:37.623Z,61.55
2018-10-19T19:09:08.113Z,61.46
2018-10-19T19:11:36.074Z,61.43
2018-10-19T19:14:03.593Z,61.53
2018-10-19T19:16:31.250Z,61.87
2018-10-19T19:18:58.890Z,61.57
2018-10-19T19:21:26.329Z,61.51
2018-10-19T19:26:00.282Z,61.58
2018-10-19T19:28:27.978Z,61.40
2018-10-19T19:30:55.523Z,61.37
2018-10-19T19:33:28.735Z,61.54
2018-10-19T19:35:56.370Z,61.68
2018-10-19T19:38:23.825Z,61.68
2018-10-19T19:40:57.077Z,61.89
2018-10-19T19:43:24.731Z,61.74
2018-10-19T19:45:52.187Z,62.01
2018-10-19T19:48:25.322Z,61.80
2018-10-19T19:50:53.020Z,61.86
2018-10-19T19:53:20.475Z,61.98
2018-10-19T19:55:48.232Z,62.18
2018-10-19T19:58:15.954Z,62.52
2018-10-19T20:00:43.433Z,62.28
2018-10-19T20:03:11.076Z,62.61
2018-10-19T20:05:38.814Z,62.46
2018-10-19T20:08:06.358Z,62.98
2018-10-19T20:10:33.937Z,62.44
2018-10-19T20:13:01.628Z,62.78
2018-10-19T20:15:29.078Z,62.81
2018-10-19T20:17:56.749Z,62.98
2018-10-19T20:20:24.449Z,62.84
2018-10-19T20:22:51.920Z,62.90
2018-10-19T20:25:19.400Z,62.98
2018-10-19T20:27:47.072Z,63.00
2018-10-19T20:30:14.530Z,62.69
2018-10-19T20:32:42.216Z,62.84
2018-10-19T20:37:49.641Z,62.87
2018-10-19T20:40:17.053Z,62.66
2018-10-19T20:42:44.518Z,62.53
2018-10-19T20:45:12.430Z,63.07
2018-10-19T20:47:39.911Z,63.34
2018-10-19T20:50:07.480Z,63.38
2018-10-19T20:52:35.204Z,63.05
2018-10-19T20:55:02.741Z,63.02
2018-10-19T20:57:30.260Z,63.29
2018-10-19T20:59:58.056Z,62.94
2018-10-19T21:02:25.565Z,63.35
2018-10-19T21:04:53.040Z,63.42
2018-10-19T21:07:20.982Z,63.37
2018-10-19T21:09:48.377Z,63.20
2018-10-19T21:12:15.829Z,63.59
2018-10-19T21:14:43.452Z,63.42
2018-10-19T21:17:10.917Z,63.66
2018-10-19T21:19:38.350Z,63.39
2018-10-19T21:22:06.378Z,63.30
2018-10-19T21:24:33.822Z,63.70
2018-10-19T21:27:01.284Z,63.77
2018-10-19T21:29:29.063Z,63.75
2018-10-19T21:31:56.485Z,63.99
2018-10-19T21:34:23.978Z,63.79
2018-10-19T21:36:51.818Z,63.63
2018-10-19T21:39:19.274Z,63.66
2018-10-19T21:41:46.744Z,63.89
2018-10-19T21:44:15.123Z,63.78
2018-10-19T21:46:42.513Z,63.98
2018-10-19T21:49:10.025Z,64.00
2018-10-19T21:51:37.821Z,63.77
2018-10-19T21:54:05.323Z,63.63
2018-10-19T21:56:32.770Z,63.92
2018-10-19T21:59:00.644Z,63.77
2018-10-19T22:01:28.125Z,63.56
2018-10-19T22:03:55.697Z,63.63
2018-10-19T22:06:23.463Z,63.70
2018-10-19T22:08:50.965Z,63.62
2018-10-19T22:11:18.445Z,63.96
2018-10-19T22:13:46.170Z,63.79
2018-10-19T22:16:13.644Z,63.78
2018-10-19T22:18:41.088Z,63.80
2018-10-19T22:21:09.017Z,63.83
2018-10-19T22:23:36.527Z,64.08
2018-10-19T22:26:04.094Z,64.28
2018-10-19T22:28:31.823Z,64.27
2018-10-19T22:30:59.295Z,64.03
2018-10-19T22:33:26.706Z,64.32
2018-10-19T22:35:54.642Z,64.35
2018-10-19T22:38:22.117Z,64.39
2018-10-19T22:40:49.627Z,64.08
2018-10-19T22:43:17.673Z,63.85
2018-10-19T22:45:45.167Z,64.17
2018-10-19T22:48:12.685Z,63.95
2018-10-19T22:50:40.284Z,64.05
2018-10-19T22:53:07.817Z,64.25
2018-10-19T22:55:35.324Z,64.41
2018-10-19T22:58:03.040Z,64.35
2018-10-19T23:00:30.473Z,64.37
2018-10-19T23:02:57.956Z,64.09
2018-10-19T23:05:25.823Z,64.30
2018-10-19T23:07:53.289Z,64.51
2018-10-19T23:10:20.755Z,64.36
2018-10-19T23:12:48.799Z,64.10
2018-10-19T23:16:18.937Z,64.47
2018-10-19T23:18:46.823Z,64.31
2018-10-19T23:21:14.261Z,64.53
2018-10-19T23:23:41.659Z,64.57
2018-10-19T23:26:09.415Z,64.54
2018-10-19T23:28:36.834Z,64.51
2018-10-19T23:31:04.417Z,64.98
2018-10-19T23:33:32.067Z,64.45
2018-10-19T23:35:59.546Z,64.59
2018-10-19T23:38:27.049Z,64.77
2018-10-19T23:40:54.943Z,65.06
2018-10-19T23:43:22.373Z,64.83
2018-10-19T23:45:49.861Z,64.77
2018-10-19T23:48:17.729Z,65.11
2018-10-19T23:50:45.234Z,64.83
2018-10-19T23:53:12.821Z,64.92
2018-10-19T23:55:40.679Z,64.76
2018-10-19T23:58:08.205Z,65.06
